sensor_id;sensor_type;location;lat;lon;timestamp;pressure;altitude;pressure_sealevel;temperature;humidity
80405;BME280;69733;48.744;9.176;2024-02-04T00:00:26;97905.66;;;6.80;79.50
80405;BME280;69733;48.744;9.176;2024-02-04T00:02:52;97896.22;;;6.77;79.28
80405;BME280;69733;48.744;9.176;2024-02-04T00:05:17;97896.22;;;6.77;79.20
80405;BME280;69733;48.744;9.176;2024-02-04T00:07:46;97889.09;;;6.78;79.22
80405;BME280;69733;48.744;9.176;2024-02-04T00:10:12;97887.47;;;6.77;79.36
80405;BME280;69733;48.744;9.176;2024-02-04T00:12:38;97880.53;;;6.76;79.24
80405;BME280;69733;48.744;9.176;2024-02-04T00:15:04;97875.41;;;6.74;79.16
80405;BME280;69733;48.744;9.176;2024-02-04T00:17:30;97862.72;;;6.70;79.67
80405;BME280;69733;48.744;9.176;2024-02-04T00:20:01;97862.25;;;6.66;79.38
80405;BME280;69733;48.744;9.176;2024-02-04T00:22:28;97855.69;;;6.62;79.68
80405;BME280;69733;48.744;9.176;2024-02-04T00:24:53;97847.09;;;6.60;79.70
80405;BME280;69733;48.744;9.176;2024-02-04T00:27:18;97833.78;;;6.54;79.70
80405;BME280;69733;48.744;9.176;2024-02-04T00:29:44;97826.56;;;6.47;80.03
80405;BME280;69733;48.744;9.176;2024-02-04T00:32:09;97818.06;;;6.37;80.21
80405;BME280;69733;48.744;9.176;2024-02-04T00:34:34;97818.09;;;6.29;80.27
80405;BME280;69733;48.744;9.176;2024-02-04T00:37:00;97820.78;;;6.21;80.56
80405;BME280;69733;48.744;9.176;2024-02-04T00:39:25;97824.16;;;6.15;80.69
80405;BME280;69733;48.744;9.176;2024-02-04T00:41:51;97819.38;;;6.11;80.41
80405;BME280;69733;48.744;9.176;2024-02-04T00:44:16;97813.00;;;6.05;80.44
80405;BME280;69733;48.744;9.176;2024-02-04T00:46:41;97817.97;;;6.00;80.48
80405;BME280;69733;48.744;9.176;2024-02-04T00:49:07;97828.25;;;5.95;80.69
80405;BME280;69733;48.744;9.176;2024-02-04T00:51:32;97827.78;;;5.91;80.46
80405;BME280;69733;48.744;9.176;2024-02-04T00:53:58;97826.63;;;5.86;80.57
80405;BME280;69733;48.744;9.176;2024-02-04T00:56:23;97830.56;;;5.82;80.33
80405;BME280;69733;48.744;9.176;2024-02-04T00:58:48;97828.47;;;5.77;80.55
80405;BME280;69733;48.744;9.176;2024-02-04T01:01:14;97842.19;;;5.73;80.53
80405;BME280;69733;48.744;9.176;2024-02-04T01:03:39;97840.88;;;5.69;81.00
80405;BME280;69733;48.744;9.176;2024-02-04T01:06:04;97839.56;;;5.65;80.77
80405;BME280;69733;48.744;9.176;2024-02-04T01:08:30;97831.84;;;5.63;80.75
80405;BME280;69733;48.744;9.176;2024-02-04T01:10:55;97836.28;;;5.63;80.78
80405;BME280;69733;48.744;9.176;2024-02-04T01:13:20;97845.19;;;5.62;80.51
80405;BME280;69733;48.744;9.176;2024-02-04T01:15:46;97837.44;;;5.60;80.63
80405;BME280;69733;48.744;9.176;2024-02-04T01:18:11;97841.91;;;5.60;80.62
80405;BME280;69733;48.744;9.176;2024-02-04T01:20:36;97839.09;;;5.61;80.73
80405;BME280;69733;48.744;9.176;2024-02-04T01:23:02;97833.81;;;5.61;80.62
80405;BME280;69733;48.744;9.176;2024-02-04T01:25:27;97820.81;;;5.60;80.45
80405;BME280;69733;48.744;9.176;2024-02-04T01:27:52;97819.50;;;5.56;80.54
80405;BME280;69733;48.744;9.176;2024-02-04T01:30:18;97815.53;;;5.51;80.49
80405;BME280;69733;48.744;9.176;2024-02-04T01:32:43;97816.06;;;5.47;80.60
80405;BME280;69733;48.744;9.176;2024-02-04T01:35:08;97828.13;;;5.41;80.43
80405;BME280;69733;48.744;9.176;2024-02-04T01:37:34;97841.00;;;5.36;80.81
80405;BME280;69733;48.744;9.176;2024-02-04T01:39:59;97830.78;;;5.33;80.64
80405;BME280;69733;48.744;9.176;2024-02-04T01:42:24;97817.44;;;5.27;80.65
80405;BME280;69733;48.744;9.176;2024-02-04T01:44:50;97829.97;;;5.25;80.80
80405;BME280;69733;48.744;9.176;2024-02-04T01:47:16;97830.16;;;5.23;80.91
80405;BME280;69733;48.744;9.176;2024-02-04T01:49:43;97832.31;;;5.28;80.68
80405;BME280;69733;48.744;9.176;2024-02-04T01:52:08;97840.38;;;5.26;80.64
80405;BME280;69733;48.744;9.176;2024-02-04T01:54:37;97839.03;;;5.30;80.49
80405;BME280;69733;48.744;9.176;2024-02-04T01:57:03;97828.97;;;5.34;80.39
80405;BME280;69733;48.744;9.176;2024-02-04T01:59:29;97829.09;;;5.40;80.17
80405;BME280;69733;48.744;9.176;2024-02-04T02:01:59;97820.84;;;5.43;80.33
80405;BME280;69733;48.744;9.176;2024-02-04T02:04:25;97828.06;;;5.49;79.67
80405;BME280;69733;48.744;9.176;2024-02-04T02:06:53;97829.38;;;5.53;79.78
80405;BME280;69733;48.744;9.176;2024-02-04T02:09:21;97838.59;;;5.58;79.68
80405;BME280;69733;48.744;9.176;2024-02-04T02:11:52;97828.72;;;5.60;79.80
80405;BME280;69733;48.744;9.176;2024-02-04T02:14:23;97819.63;;;5.62;79.84
80405;BME280;69733;48.744;9.176;2024-02-04T02:16:52;97817.28;;;5.67;79.74
80405;BME280;69733;48.744;9.176;2024-02-04T02:24:42;97817.44;;;5.74;79.71
80405;BME280;69733;48.744;9.176;2024-02-04T02:27:07;97818.06;;;5.76;79.96
80405;BME280;69733;48.744;9.176;2024-02-04T02:29:33;97822.16;;;5.78;79.61
80405;BME280;69733;48.744;9.176;2024-02-04T02:31:59;97825.28;;;5.82;79.87
80405;BME280;69733;48.744;9.176;2024-02-04T02:34:25;97829.59;;;5.83;79.64
80405;BME280;69733;48.744;9.176;2024-02-04T02:36:57;97833.69;;;5.85;79.78
80405;BME280;69733;48.744;9.176;2024-02-04T02:39:28;97831.56;;;5.89;79.91
80405;BME280;69733;48.744;9.176;2024-02-04T02:41:57;97826.75;;;5.92;79.78
80405;BME280;69733;48.744;9.176;2024-02-04T02:44:25;97821.13;;;5.95;79.75
80405;BME280;69733;48.744;9.176;2024-02-04T02:46:52;97820.94;;;5.97;79.89
80405;BME280;69733;48.744;9.176;2024-02-04T02:49:19;97817.97;;;6.00;79.85
80405;BME280;69733;48.744;9.176;2024-02-04T02:51:45;97832.16;;;5.99;80.02
80405;BME280;69733;48.744;9.176;2024-02-04T02:54:10;97825.06;;;5.99;79.88
80405;BME280;69733;48.744;9.176;2024-02-04T02:56:36;97831.00;;;6.02;79.87
80405;BME280;69733;48.744;9.176;2024-02-04T02:59:02;97828.84;;;6.05;80.28
80405;BME280;69733;48.744;9.176;2024-02-04T03:01:28;97829.81;;;6.04;80.04
80405;BME280;69733;48.744;9.176;2024-02-04T03:03:54;97828.84;;;6.05;80.07
80405;BME280;69733;48.744;9.176;2024-02-04T03:06:19;97829.66;;;6.06;80.16
80405;BME280;69733;48.744;9.176;2024-02-04T03:08:44;97822.72;;;6.05;80.15
80405;BME280;69733;48.744;9.176;2024-02-04T03:11:09;97812.78;;;6.07;80.14
80405;BME280;69733;48.744;9.176;2024-02-04T03:13:38;97807.50;;;6.07;80.65
80405;BME280;69733;48.744;9.176;2024-02-04T03:16:04;97807.50;;;6.07;80.42
80405;BME280;69733;48.744;9.176;2024-02-04T03:18:29;97803.41;;;6.04;80.72
80405;BME280;69733;48.744;9.176;2024-02-04T03:20:54;97800.94;;;6.03;80.37
80405;BME280;69733;48.744;9.176;2024-02-04T03:23:20;97792.00;;;6.04;80.58
80405;BME280;69733;48.744;9.176;2024-02-04T03:25:47;97792.84;;;6.04;80.48
80405;BME280;69733;48.744;9.176;2024-02-04T03:28:13;97799.94;;;6.04;80.88
80405;BME280;69733;48.744;9.176;2024-02-04T03:30:38;97790.19;;;6.04;80.73
80405;BME280;69733;48.744;9.176;2024-02-04T03:33:03;97799.59;;;6.07;80.65
80405;BME280;69733;48.744;9.176;2024-02-04T03:35:29;97799.78;;;6.05;80.95
80405;BME280;69733;48.744;9.176;2024-02-04T03:37:54;97797.78;;;6.07;80.44
80405;BME280;69733;48.744;9.176;2024-02-04T03:40:19;97795.78;;;6.09;81.06
80405;BME280;69733;48.744;9.176;2024-02-04T03:42:47;97794.78;;;6.10;80.86
80405;BME280;69733;48.744;9.176;2024-02-04T03:45:13;97797.41;;;6.10;80.88
80405;BME280;69733;48.744;9.176;2024-02-04T03:47:39;97795.59;;;6.11;80.87
80405;BME280;69733;48.744;9.176;2024-02-04T03:50:04;97795.59;;;6.11;81.10
80405;BME280;69733;48.744;9.176;2024-02-04T03:52:30;97791.31;;;6.10;80.92
80405;BME280;69733;48.744;9.176;2024-02-04T03:54:55;97790.16;;;6.12;80.83
80405;BME280;69733;48.744;9.176;2024-02-04T03:57:21;97794.41;;;6.13;81.06
80405;BME280;69733;48.744;9.176;2024-02-04T03:59:46;97785.69;;;6.13;81.11
80405;BME280;69733;48.744;9.176;2024-02-04T04:02:12;97775.13;;;6.13;81.00
80405;BME280;69733;48.744;9.176;2024-02-04T04:04:40;97770.63;;;6.13;81.14
80405;BME280;69733;48.744;9.176;2024-02-04T04:07:06;97774.31;;;6.12;81.24
80405;BME280;69733;48.744;9.176;2024-02-04T04:09:31;97775.94;;;6.13;81.05
80405;BME280;69733;48.744;9.176;2024-02-04T04:11:57;97777.94;;;6.11;80.93
80405;BME280;69733;48.744;9.176;2024-02-04T04:14:22;97791.16;;;6.11;81.10
80405;BME280;69733;48.744;9.176;2024-02-04T04:16:47;97799.06;;;6.11;81.20
80405;BME280;69733;48.744;9.176;2024-02-04T04:19:12;97784.41;;;6.09;81.41
80405;BME280;69733;48.744;9.176;2024-02-04T04:21:38;97804.72;;;6.08;81.14
80405;BME280;69733;48.744;9.176;2024-02-04T04:24:03;97802.06;;;6.08;81.45
80405;BME280;69733;48.744;9.176;2024-02-04T04:26:29;97788.84;;;6.08;81.49
80405;BME280;69733;48.744;9.176;2024-02-04T04:28:54;97795.44;;;6.12;81.12
80405;BME280;69733;48.744;9.176;2024-02-04T04:31:19;97803.38;;;6.12;80.97
80405;BME280;69733;48.744;9.176;2024-02-04T04:33:45;97796.44;;;6.11;81.17
80405;BME280;69733;48.744;9.176;2024-02-04T04:36:10;97797.63;;;6.09;81.55
80405;BME280;69733;48.744;9.176;2024-02-04T04:38:35;97799.59;;;6.07;81.38
80405;BME280;69733;48.744;9.176;2024-02-04T04:41:00;97813.97;;;6.04;81.35
80405;BME280;69733;48.744;9.176;2024-02-04T04:43:26;97807.03;;;6.03;81.76
80405;BME280;69733;48.744;9.176;2024-02-04T04:45:52;97811.50;;;6.03;81.77
80405;BME280;69733;48.744;9.176;2024-02-04T04:48:17;97819.63;;;6.01;81.68
80405;BME280;69733;48.744;9.176;2024-02-04T04:50:42;97823.72;;;6.04;81.64
80405;BME280;69733;48.744;9.176;2024-02-04T04:53:08;97819.25;;;6.04;81.41
80405;BME280;69733;48.744;9.176;2024-02-04T04:55:33;97819.91;;;6.06;81.47
80405;BME280;69733;48.744;9.176;2024-02-04T04:57:58;97825.03;;;6.08;81.54
80405;BME280;69733;48.744;9.176;2024-02-04T05:00:24;97824.19;;;6.07;81.66
80405;BME280;69733;48.744;9.176;2024-02-04T05:02:49;97820.91;;;6.05;81.70
80405;BME280;69733;48.744;9.176;2024-02-04T05:05:14;97826.84;;;6.07;81.47
80405;BME280;69733;48.744;9.176;2024-02-04T05:07:40;97826.84;;;6.07;81.42
80405;BME280;69733;48.744;9.176;2024-02-04T05:10:06;97817.25;;;6.06;81.33
80405;BME280;69733;48.744;9.176;2024-02-04T05:12:32;97809.31;;;6.06;81.42
80405;BME280;69733;48.744;9.176;2024-02-04T05:14:58;97812.63;;;6.08;81.46
80405;BME280;69733;48.744;9.176;2024-02-04T05:17:23;97816.94;;;6.09;81.54
80405;BME280;69733;48.744;9.176;2024-02-04T05:19:48;97822.22;;;6.09;81.67
80405;BME280;69733;48.744;9.176;2024-02-04T05:22:14;97819.56;;;6.09;81.58
80405;BME280;69733;48.744;9.176;2024-02-04T05:24:40;97820.84;;;6.13;81.46
80405;BME280;69733;48.744;9.176;2024-02-04T05:27:06;97816.56;;;6.12;81.67
80405;BME280;69733;48.744;9.176;2024-02-04T05:29:31;97821.88;;;6.12;81.55
80405;BME280;69733;48.744;9.176;2024-02-04T05:31:57;97825.50;;;6.11;81.88
80405;BME280;69733;48.744;9.176;2024-02-04T05:34:22;97821.03;;;6.12;81.89
80405;BME280;69733;48.744;9.176;2024-02-04T05:36:47;97812.13;;;6.13;81.73
80405;BME280;69733;48.744;9.176;2024-02-04T05:39:14;97810.00;;;6.08;81.76
80405;BME280;69733;48.744;9.176;2024-02-04T05:41:40;97810.97;;;6.07;81.43
80405;BME280;69733;48.744;9.176;2024-02-04T05:44:06;97810.81;;;6.09;81.71
80405;BME280;69733;48.744;9.176;2024-02-04T05:46:31;97821.53;;;6.07;81.75
80405;BME280;69733;48.744;9.176;2024-02-04T05:48:57;97824.19;;;6.07;81.85
80405;BME280;69733;48.744;9.176;2024-02-04T05:51:22;97832.13;;;6.07;81.73
80405;BME280;69733;48.744;9.176;2024-02-04T05:53:47;97831.13;;;6.08;81.61
80405;BME280;69733;48.744;9.176;2024-02-04T05:56:13;97838.06;;;6.09;81.95
80405;BME280;69733;48.744;9.176;2024-02-04T05:58:39;97833.78;;;6.08;81.85
80405;BME280;69733;48.744;9.176;2024-02-04T06:01:04;97841.03;;;6.06;81.90
80405;BME280;69733;48.744;9.176;2024-02-04T06:03:30;97835.09;;;6.04;81.83
80405;BME280;69733;48.744;9.176;2024-02-04T06:05:55;97839.91;;;6.00;82.07
80405;BME280;69733;48.744;9.176;2024-02-04T06:08:20;97838.47;;;5.98;82.19
80405;BME280;69733;48.744;9.176;2024-02-04T06:10:46;97829.22;;;5.94;82.04
80405;BME280;69733;48.744;9.176;2024-02-04T06:13:11;97832.22;;;5.91;82.67
80405;BME280;69733;48.744;9.176;2024-02-04T06:15:36;97835.38;;;5.86;82.59
80405;BME280;69733;48.744;9.176;2024-02-04T06:18:02;97840.78;;;5.85;82.60
80405;BME280;69733;48.744;9.176;2024-02-04T06:20:27;97846.06;;;5.85;82.60
80405;BME280;69733;48.744;9.176;2024-02-04T06:22:53;97852.19;;;5.85;82.39
80405;BME280;69733;48.744;9.176;2024-02-04T06:25:18;97850.41;;;5.86;82.63
80405;BME280;69733;48.744;9.176;2024-02-04T06:27:43;97846.75;;;5.87;82.35
80405;BME280;69733;48.744;9.176;2024-02-04T06:30:09;97840.66;;;5.86;82.31
80405;BME280;69733;48.744;9.176;2024-02-04T06:32:34;97838.84;;;5.87;81.92
80405;BME280;69733;48.744;9.176;2024-02-04T06:35:00;97838.00;;;5.86;82.04
80405;BME280;69733;48.744;9.176;2024-02-04T06:37:25;97842.31;;;5.87;82.07
80405;BME280;69733;48.744;9.176;2024-02-04T06:39:52;97838.84;;;5.87;82.20
80405;BME280;69733;48.744;9.176;2024-02-04T06:42:17;97845.94;;;5.86;82.32
80405;BME280;69733;48.744;9.176;2024-02-04T06:44:46;97841.63;;;5.85;82.40
80405;BME280;69733;48.744;9.176;2024-02-04T06:47:11;97858.63;;;5.83;82.38
80405;BME280;69733;48.744;9.176;2024-02-04T06:49:39;97858.00;;;5.81;82.57
80405;BME280;69733;48.744;9.176;2024-02-04T06:52:04;97872.19;;;5.80;82.27
80405;BME280;69733;48.744;9.176;2024-02-04T06:54:29;97873.16;;;5.79;82.26
80405;BME280;69733;48.744;9.176;2024-02-04T06:56:55;97877.63;;;5.78;82.15
80405;BME280;69733;48.744;9.176;2024-02-04T06:59:20;97876.63;;;5.79;82.57
80405;BME280;69733;48.744;9.176;2024-02-04T07:01:45;97875.81;;;5.79;82.33
80405;BME280;69733;48.744;9.176;2024-02-04T07:04:11;97873.16;;;5.79;82.57
80405;BME280;69733;48.744;9.176;2024-02-04T07:06:36;97864.41;;;5.78;82.44
80405;BME280;69733;48.744;9.176;2024-02-04T07:09:01;97860.31;;;5.76;82.54
80405;BME280;69733;48.744;9.176;2024-02-04T07:11:27;97849.28;;;5.72;82.78
80405;BME280;69733;48.744;9.176;2024-02-04T07:13:52;97840.03;;;5.68;82.69
80405;BME280;69733;48.744;9.176;2024-02-04T07:16:24;97836.09;;;5.64;82.48
80405;BME280;69733;48.744;9.176;2024-02-04T07:18:49;97842.56;;;5.62;82.68
80405;BME280;69733;48.744;9.176;2024-02-04T07:21:15;97844.72;;;5.58;82.94
80405;BME280;69733;48.744;9.176;2024-02-04T07:23:40;97842.22;;;5.57;82.81
80405;BME280;69733;48.744;9.176;2024-02-04T07:26:05;97843.25;;;5.56;82.57
80405;BME280;69733;48.744;9.176;2024-02-04T07:28:31;97838.59;;;5.58;82.66
80405;BME280;69733;48.744;9.176;2024-02-04T07:30:56;97837.63;;;5.59;82.72
80405;BME280;69733;48.744;9.176;2024-02-04T07:33:21;97837.28;;;5.62;82.50
80405;BME280;69733;48.744;9.176;2024-02-04T07:35:47;97838.41;;;5.67;82.14
80405;BME280;69733;48.744;9.176;2024-02-04T07:38:12;97842.00;;;5.74;81.89
80405;BME280;69733;48.744;9.176;2024-02-04T07:40:37;97847.59;;;5.79;81.75
80405;BME280;69733;48.744;9.176;2024-02-04T07:43:03;97843.63;;;5.83;81.72
80405;BME280;69733;48.744;9.176;2024-02-04T07:45:28;97843.78;;;5.90;81.51
80405;BME280;69733;48.744;9.176;2024-02-04T07:47:53;97855.28;;;5.97;81.22
80405;BME280;69733;48.744;9.176;2024-02-04T07:50:19;97857.81;;;6.13;81.04
80405;BME280;69733;48.744;9.176;2024-02-04T07:52:44;97848.34;;;6.27;80.51
80405;BME280;69733;48.744;9.176;2024-02-04T07:55:09;97856.88;;;6.37;80.65
80405;BME280;69733;48.744;9.176;2024-02-04T07:57:35;97842.13;;;6.42;80.95
80405;BME280;69733;48.744;9.176;2024-02-04T08:00:01;97841.25;;;6.50;80.85
80405;BME280;69733;48.744;9.176;2024-02-04T08:02:28;97828.31;;;6.55;80.51
80405;BME280;69733;48.744;9.176;2024-02-04T08:04:54;97823.66;;;6.57;80.66
80405;BME280;69733;48.744;9.176;2024-02-04T08:07:19;97819.94;;;6.66;80.87
80405;BME280;69733;48.744;9.176;2024-02-04T08:09:45;97816.78;;;6.71;80.80
80405;BME280;69733;48.744;9.176;2024-02-04T08:12:11;97812.78;;;6.75;80.49
80405;BME280;69733;48.744;9.176;2024-02-04T08:14:37;97817.69;;;6.78;80.97
80405;BME280;69733;48.744;9.176;2024-02-04T08:17:02;97814.06;;;6.79;80.76
80405;BME280;69733;48.744;9.176;2024-02-04T08:19:27;97817.34;;;6.81;80.79
80405;BME280;69733;48.744;9.176;2024-02-04T08:21:53;97822.25;;;6.84;81.13
80405;BME280;69733;48.744;9.176;2024-02-04T08:24:18;97827.84;;;6.89;80.97
80405;BME280;69733;48.744;9.176;2024-02-04T08:26:44;97832.41;;;6.95;80.83
80405;BME280;69733;48.744;9.176;2024-02-04T08:29:09;97823.94;;;6.99;80.89
80405;BME280;69733;48.744;9.176;2024-02-04T08:31:36;97826.06;;;7.04;80.85
80405;BME280;69733;48.744;9.176;2024-02-04T08:34:01;97822.69;;;7.10;80.73
80405;BME280;69733;48.744;9.176;2024-02-04T08:36:28;97828.88;;;7.17;80.89
80405;BME280;69733;48.744;9.176;2024-02-04T08:38:55;97836.47;;;7.20;80.76
80405;BME280;69733;48.744;9.176;2024-02-04T08:41:20;97829.34;;;7.21;80.75
80405;BME280;69733;48.744;9.176;2024-02-04T08:43:45;97837.59;;;7.26;80.92
80405;BME280;69733;48.744;9.176;2024-02-04T08:46:11;97841.03;;;7.26;80.87
80405;BME280;69733;48.744;9.176;2024-02-04T08:48:36;97836.38;;;7.28;80.97
80405;BME280;69733;48.744;9.176;2024-02-04T08:51:02;97843.97;;;7.31;80.87
80405;BME280;69733;48.744;9.176;2024-02-04T08:53:27;97851.53;;;7.34;81.16
80405;BME280;69733;48.744;9.176;2024-02-04T08:55:53;97845.03;;;7.37;80.95
80405;BME280;69733;48.744;9.176;2024-02-04T08:58:18;97835.28;;;7.37;81.19
80405;BME280;69733;48.744;9.176;2024-02-04T09:00:43;97826.63;;;7.43;81.11
80405;BME280;69733;48.744;9.176;2024-02-04T09:03:09;97817.28;;;7.47;80.95
80405;BME280;69733;48.744;9.176;2024-02-04T09:05:34;97819.22;;;7.54;81.07
80405;BME280;69733;48.744;9.176;2024-02-04T09:07:59;97818.47;;;7.60;80.50
80405;BME280;69733;48.744;9.176;2024-02-04T09:10:26;97823.41;;;7.63;80.78
80405;BME280;69733;48.744;9.176;2024-02-04T09:12:51;97817.19;;;7.70;80.93
80405;BME280;69733;48.744;9.176;2024-02-04T09:15:17;97816.88;;;7.80;80.51
80405;BME280;69733;48.744;9.176;2024-02-04T09:17:42;97813.88;;;7.83;80.58
80405;BME280;69733;48.744;9.176;2024-02-04T09:20:08;97823.84;;;7.81;80.71
80405;BME280;69733;48.744;9.176;2024-02-04T09:22:33;97824.50;;;7.83;80.74
80405;BME280;69733;48.744;9.176;2024-02-04T09:24:59;97830.59;;;7.83;81.06
80405;BME280;69733;48.744;9.176;2024-02-04T09:27:24;97837.38;;;7.86;80.84
80405;BME280;69733;48.744;9.176;2024-02-04T09:29:50;97836.00;;;7.90;80.98
80405;BME280;69733;48.744;9.176;2024-02-04T09:32:16;97832.75;;;7.94;80.87
80405;BME280;69733;48.744;9.176;2024-02-04T09:34:41;97838.34;;;7.99;80.77
80405;BME280;69733;48.744;9.176;2024-02-04T09:37:06;97837.78;;;8.04;80.92
80405;BME280;69733;48.744;9.176;2024-02-04T09:39:32;97838.41;;;8.06;80.82
80405;BME280;69733;48.744;9.176;2024-02-04T09:41:57;97834.81;;;8.14;80.84
80405;BME280;69733;48.744;9.176;2024-02-04T09:44:23;97827.31;;;8.17;80.63
80405;BME280;69733;48.744;9.176;2024-02-04T09:46:53;97834.13;;;8.26;80.62
80405;BME280;69733;48.744;9.176;2024-02-04T09:49:19;97832.41;;;8.33;80.29
80405;BME280;69733;48.744;9.176;2024-02-04T09:51:45;97835.06;;;8.55;79.84
80405;BME280;69733;48.744;9.176;2024-02-04T09:54:11;97840.16;;;8.77;79.25
80405;BME280;69733;48.744;9.176;2024-02-04T09:56:37;97836.06;;;8.96;79.08
80405;BME280;69733;48.744;9.176;2024-02-04T09:59:04;97831.09;;;8.93;79.12
80405;BME280;69733;48.744;9.176;2024-02-04T10:01:30;97821.69;;;8.90;79.54
80405;BME280;69733;48.744;9.176;2024-02-04T10:03:56;97817.81;;;8.93;79.63
80405;BME280;69733;48.744;9.176;2024-02-04T10:06:21;97807.50;;;9.05;79.40
80405;BME280;69733;48.744;9.176;2024-02-04T10:08:47;97799.59;;;9.11;79.28
80405;BME280;69733;48.744;9.176;2024-02-04T10:11:13;97789.66;;;9.20;79.22
80405;BME280;69733;48.744;9.176;2024-02-04T10:13:50;97785.34;;;9.19;79.52
80405;BME280;69733;48.744;9.176;2024-02-04T10:16:16;97783.50;;;9.19;79.76
80405;BME280;69733;48.744;9.176;2024-02-04T10:18:43;97782.16;;;9.36;79.33
80405;BME280;69733;48.744;9.176;2024-02-04T10:21:19;97773.28;;;9.57;78.75
80405;BME280;69733;48.744;9.176;2024-02-04T10:23:48;97767.66;;;9.80;78.14
80405;BME280;69733;48.744;9.176;2024-02-04T10:26:14;97765.88;;;10.00;77.94
80405;BME280;69733;48.744;9.176;2024-02-04T10:28:39;97757.91;;;10.13;77.72
80405;BME280;69733;48.744;9.176;2024-02-04T10:31:08;97746.72;;;10.24;77.63
80405;BME280;69733;48.744;9.176;2024-02-04T10:33:34;97738.13;;;10.35;77.49
80405;BME280;69733;48.744;9.176;2024-02-04T10:35:59;97741.44;;;10.44;77.61
80405;BME280;69733;48.744;9.176;2024-02-04T10:38:24;97729.56;;;10.66;77.18
80405;BME280;69733;48.744;9.176;2024-02-04T10:40:53;97736.91;;;10.77;77.00
80405;BME280;69733;48.744;9.176;2024-02-04T10:43:18;97740.19;;;10.86;76.99
80405;BME280;69733;48.744;9.176;2024-02-04T10:45:46;97744.09;;;10.77;77.67
80405;BME280;69733;48.744;9.176;2024-02-04T10:48:15;97770.50;;;10.78;77.91
80405;BME280;69733;48.744;9.176;2024-02-04T10:50:46;97769.25;;;10.94;77.44
80405;BME280;69733;48.744;9.176;2024-02-04T10:53:14;97769.44;;;11.06;77.37
80405;BME280;69733;48.744;9.176;2024-02-04T10:55:43;97771.47;;;11.10;77.40
80405;BME280;69733;48.744;9.176;2024-02-04T10:58:12;97779.25;;;11.25;77.02
80405;BME280;69733;48.744;9.176;2024-02-04T11:00:39;97793.38;;;11.32;76.87
80405;BME280;69733;48.744;9.176;2024-02-04T11:03:06;97791.13;;;11.09;77.69
80405;BME280;69733;48.744;9.176;2024-02-04T11:05:33;97775.38;;;10.88;78.30
80405;BME280;69733;48.744;9.176;2024-02-04T11:08:01;97763.72;;;10.82;78.71
80405;BME280;69733;48.744;9.176;2024-02-04T11:10:29;97756.97;;;10.86;78.46
80405;BME280;69733;48.744;9.176;2024-02-04T11:12:55;97747.31;;;10.98;77.99
80405;BME280;69733;48.744;9.176;2024-02-04T11:15:25;97739.72;;;11.02;77.83
80405;BME280;69733;48.744;9.176;2024-02-04T11:18:21;97735.88;;;10.98;77.80
80405;BME280;69733;48.744;9.176;2024-02-04T11:21:18;97731.56;;;10.97;77.68
80405;BME280;69733;48.744;9.176;2024-02-04T11:23:43;97734.41;;;11.02;77.53
80405;BME280;69733;48.744;9.176;2024-02-04T11:26:15;97732.56;;;11.16;77.07
80405;BME280;69733;48.744;9.176;2024-02-04T11:28:42;97735.94;;;11.42;76.59
80405;BME280;69733;48.744;9.176;2024-02-04T11:31:22;97731.13;;;11.71;75.84
80405;BME280;69733;48.744;9.176;2024-02-04T11:33:50;97738.50;;;11.75;75.79
80405;BME280;69733;48.744;9.176;2024-02-04T11:36:16;97745.53;;;12.01;74.99
80405;BME280;69733;48.744;9.176;2024-02-04T11:38:43;97729.56;;;12.32;74.45
80405;BME280;69733;48.744;9.176;2024-02-04T11:41:09;97734.59;;;12.40;74.23
80405;BME280;69733;48.744;9.176;2024-02-04T11:43:36;97715.41;;;12.57;74.08
80405;BME280;69733;48.744;9.176;2024-02-04T11:46:03;97717.25;;;12.56;74.25
80405;BME280;69733;48.744;9.176;2024-02-04T11:48:30;97711.28;;;12.54;74.48
80405;BME280;69733;48.744;9.176;2024-02-04T11:50:57;97714.78;;;12.55;74.29
80405;BME280;69733;48.744;9.176;2024-02-04T11:53:26;97712.56;;;12.52;74.96
80405;BME280;69733;48.744;9.176;2024-02-04T11:55:55;97715.22;;;12.52;74.67
80405;BME280;69733;48.744;9.176;2024-02-04T11:58:20;97710.06;;;12.57;74.34
80405;BME280;69733;48.744;9.176;2024-02-04T12:00:46;97704.16;;;12.48;74.70
80405;BME280;69733;48.744;9.176;2024-02-04T12:03:12;97691.97;;;12.34;74.96
80405;BME280;69733;48.744;9.176;2024-02-04T12:05:38;97686.69;;;12.27;74.72
80405;BME280;69733;48.744;9.176;2024-02-04T12:08:07;97691.16;;;12.02;75.27
80405;BME280;69733;48.744;9.176;2024-02-04T12:10:34;97685.28;;;11.93;75.36
80405;BME280;69733;48.744;9.176;2024-02-04T12:13:04;97665.66;;;11.81;75.60
80405;BME280;69733;48.744;9.176;2024-02-04T12:15:31;97679.09;;;11.62;75.74
80405;BME280;69733;48.744;9.176;2024-02-04T12:18:07;97672.16;;;11.54;75.54
80405;BME280;69733;48.744;9.176;2024-02-04T12:20:32;97662.97;;;11.43;75.65
80405;BME280;69733;48.744;9.176;2024-02-04T12:22:58;97662.97;;;11.43;75.20
80405;BME280;69733;48.744;9.176;2024-02-04T12:25:23;97659.94;;;11.33;75.07
80405;BME280;69733;48.744;9.176;2024-02-04T12:27:51;97667.75;;;11.28;75.02
80405;BME280;69733;48.744;9.176;2024-02-04T12:30:17;97669.00;;;11.26;74.92
80405;BME280;69733;48.744;9.176;2024-02-04T12:32:43;97666.34;;;11.19;74.88
80405;BME280;69733;48.744;9.176;2024-02-04T12:35:13;97665.94;;;11.22;74.70
80405;BME280;69733;48.744;9.176;2024-02-04T12:37:50;97675.16;;;11.20;74.30
80405;BME280;69733;48.744;9.176;2024-02-04T12:40:23;97666.97;;;11.15;74.45
80405;BME280;69733;48.744;9.176;2024-02-04T12:42:54;97665.56;;;11.12;74.29
80405;BME280;69733;48.744;9.176;2024-02-04T12:45:19;97674.38;;;11.06;74.28
80405;BME280;69733;48.744;9.176;2024-02-04T12:47:52;97666.63;;;10.98;74.26
80405;BME280;69733;48.744;9.176;2024-02-04T12:50:18;97666.41;;;10.99;73.94
80405;BME280;69733;48.744;9.176;2024-02-04T12:52:48;97664.16;;;11.03;73.69
80405;BME280;69733;48.744;9.176;2024-02-04T12:55:24;97651.84;;;11.09;73.27
80405;BME280;69733;48.744;9.176;2024-02-04T12:57:50;97659.16;;;11.26;72.86
80405;BME280;69733;48.744;9.176;2024-02-04T13:00:19;97645.41;;;11.29;72.57
80405;BME280;69733;48.744;9.176;2024-02-04T13:02:44;97646.34;;;11.41;72.25
80405;BME280;69733;48.744;9.176;2024-02-04T13:05:10;97635.66;;;11.48;72.10
80405;BME280;69733;48.744;9.176;2024-02-04T13:07:36;97638.66;;;11.65;71.65